Sunrise, Minnesota
Current Conditions -  °F | °C
As of 1:15 AM on Wednesday 22 Oct 2014 (Local Time) from KROS Reporting Station
Scattered Clouds Scattered Clouds  
Wind Chill: 36°   Ceiling: Unl
Heat Index: 40°   Visibility: 10mi
Dew Point: 35°   Wind: 6mph
Humidity: 82%   Direction: 130°SE
Pressure: 30.18"   Gusts: NA
Location:  45.5343°N, 92.8964°W
Report Text: KROS 220615Z AUTO 13005KT 10SM SCT110 05/02 A3018 RMK AO2 T00450016
Loading
Personal Weather Stations






























Interactive Weather Map
Tropical Storm Tracking
New forecast layout! Learn more

10-Day Weather Forecast

Advertisements
Track Severe Weather on mobile